sensor_id;sensor_type;location;lat;lon;timestamp;pressure;altitude;pressure_sealevel;temperature;humidity
21869;BME280;11099;41.564;23.296;2022-08-21T00:00:51;97008.91;;;22.52;100.00
21869;BME280;11099;41.564;23.296;2022-08-21T00:03:17;97002.69;;;22.58;100.00
21869;BME280;11099;41.564;23.296;2022-08-21T00:05:47;97006.47;;;22.68;100.00
21869;BME280;11099;41.564;23.296;2022-08-21T00:08:15;97001.81;;;22.69;100.00
21869;BME280;11099;41.564;23.296;2022-08-21T00:10:41;96984.81;;;22.65;100.00
21869;BME280;11099;41.564;23.296;2022-08-21T00:13:07;96926.75;;;22.58;100.00
21869;BME280;11099;41.564;23.296;2022-08-21T00:15:35;96984.66;;;22.93;100.00
21869;BME280;11099;41.564;23.296;2022-08-21T00:18:03;96976.59;;;22.02;100.00
21869;BME280;11099;41.564;23.296;2022-08-21T00:20:29;96962.41;;;21.62;100.00
21869;BME280;11099;41.564;23.296;2022-08-21T00:22:55;96939.28;;;21.36;100.00
21869;BME280;11099;41.564;23.296;2022-08-21T00:25:21;96933.09;;;21.21;100.00
21869;BME280;11099;41.564;23.296;2022-08-21T00:27:46;96840.34;;;20.03;100.00
21869;BME280;11099;41.564;23.296;2022-08-21T00:30:16;96835.25;;;19.62;100.00
21869;BME280;11099;41.564;23.296;2022-08-21T00:32:42;96943.94;;;20.75;100.00
21869;BME280;11099;41.564;23.296;2022-08-21T00:35:10;96952.44;;;20.98;100.00
21869;BME280;11099;41.564;23.296;2022-08-21T00:37:37;96962.06;;;20.46;100.00
21869;BME280;11099;41.564;23.296;2022-08-21T00:40:03;96906.31;;;19.84;100.00
21869;BME280;11099;41.564;23.296;2022-08-21T00:42:29;96922.13;;;19.86;100.00
21869;BME280;11099;41.564;23.296;2022-08-21T00:44:55;96980.22;;;20.49;100.00
21869;BME280;11099;41.564;23.296;2022-08-21T00:47:21;96931.84;;;20.12;100.00
21869;BME280;11099;41.564;23.296;2022-08-21T00:49:47;96981.00;;;20.60;100.00
21869;BME280;11099;41.564;23.296;2022-08-21T00:52:19;96977.06;;;20.36;100.00
21869;BME280;11099;41.564;23.296;2022-08-21T00:54:46;96865.66;;;19.56;100.00
21869;BME280;11099;41.564;23.296;2022-08-21T00:57:19;96914.03;;;19.86;100.00
21869;BME280;11099;41.564;23.296;2022-08-21T00:59:49;96850.91;;;19.32;100.00
21869;BME280;11099;41.564;23.296;2022-08-21T01:02:16;96904.22;;;19.53;100.00
21869;BME280;11099;41.564;23.296;2022-08-21T01:04:42;96923.63;;;19.83;100.00
21869;BME280;11099;41.564;23.296;2022-08-21T01:07:08;96941.78;;;19.86;100.00
21869;BME280;11099;41.564;23.296;2022-08-21T01:09:34;96922.50;;;19.84;100.00
21869;BME280;11099;41.564;23.296;2022-08-21T01:12:00;96846.28;;;19.29;100.00
21869;BME280;11099;41.564;23.296;2022-08-21T01:14:26;96835.91;;;19.34;100.00
21869;BME280;11099;41.564;23.296;2022-08-21T01:16:52;96857.22;;;19.64;100.00
21869;BME280;11099;41.564;23.296;2022-08-21T01:19:20;96837.09;;;19.47;100.00
21869;BME280;11099;41.564;23.296;2022-08-21T01:21:46;96948.50;;;20.42;100.00
21869;BME280;11099;41.564;23.296;2022-08-21T01:24:12;96898.28;;;20.27;100.00
21869;BME280;11099;41.564;23.296;2022-08-21T01:26:39;96945.50;;;20.62;100.00
21869;BME280;11099;41.564;23.296;2022-08-21T01:29:11;96917.66;;;20.50;100.00
21869;BME280;11099;41.564;23.296;2022-08-21T01:31:38;96933.09;;;20.93;100.00
21869;BME280;11099;41.564;23.296;2022-08-21T01:34:05;96885.91;;;20.15;100.00
21869;BME280;11099;41.564;23.296;2022-08-21T01:36:31;96934.25;;;20.52;100.00
21869;BME280;11099;41.564;23.296;2022-08-21T01:38:57;96936.59;;;20.75;100.00
21869;BME280;11099;41.564;23.296;2022-08-21T01:41:23;96926.94;;;20.82;100.00
21869;BME280;11099;41.564;23.296;2022-08-21T01:43:48;96857.38;;;20.39;100.00
21869;BME280;11099;41.564;23.296;2022-08-21T01:46:15;96907.63;;;20.90;100.00
21869;BME280;11099;41.564;23.296;2022-08-21T01:48:41;96789.41;;;20.19;100.00
21869;BME280;11099;41.564;23.296;2022-08-21T01:51:07;96896.00;;;20.86;100.00
21869;BME280;11099;41.564;23.296;2022-08-21T01:53:34;96909.88;;;21.31;100.00
21869;BME280;11099;41.564;23.296;2022-08-21T01:56:03;96925.63;;;21.72;100.00
21869;BME280;11099;41.564;23.296;2022-08-21T01:58:29;96854.22;;;21.30;100.00
21869;BME280;11099;41.564;23.296;2022-08-21T02:00:55;96915.25;;;21.60;100.00
21869;BME280;11099;41.564;23.296;2022-08-21T02:03:20;96874.00;;;20.52;100.00
21869;BME280;11099;41.564;23.296;2022-08-21T02:05:46;96801.72;;;19.74;100.00
21869;BME280;11099;41.564;23.296;2022-08-21T02:08:11;96810.63;;;20.03;100.00
21869;BME280;11099;41.564;23.296;2022-08-21T02:10:37;96873.13;;;19.87;100.00
21869;BME280;11099;41.564;23.296;2022-08-21T02:13:03;96853.84;;;19.89;100.00
21869;BME280;11099;41.564;23.296;2022-08-21T02:15:29;96927.69;;;20.53;100.00
21869;BME280;11099;41.564;23.296;2022-08-21T02:17:59;96905.66;;;20.34;100.00
21869;BME280;11099;41.564;23.296;2022-08-21T02:20:32;96931.94;;;20.76;100.00
21869;BME280;11099;41.564;23.296;2022-08-21T02:22:59;96914.19;;;20.89;100.00
21869;BME280;11099;41.564;23.296;2022-08-21T02:25:26;96934.63;;;21.44;100.00
21869;BME280;11099;41.564;23.296;2022-08-21T02:27:55;96923.41;;;21.24;100.00
21869;BME280;11099;41.564;23.296;2022-08-21T02:30:28;96912.84;;;21.76;100.00
21869;BME280;11099;41.564;23.296;2022-08-21T02:32:54;96896.94;;;21.85;100.00
21869;BME280;11099;41.564;23.296;2022-08-21T02:35:21;96919.06;;;21.69;100.00
21869;BME280;11099;41.564;23.296;2022-08-21T02:37:55;96927.84;;;21.95;100.00
21869;BME280;11099;41.564;23.296;2022-08-21T02:40:25;96861.56;;;21.33;100.00
21869;BME280;11099;41.564;23.296;2022-08-21T02:42:51;96885.22;;;20.79;100.00
21869;BME280;11099;41.564;23.296;2022-08-21T02:45:18;96909.16;;;20.81;100.00
21869;BME280;11099;41.564;23.296;2022-08-21T02:47:50;96913.78;;;21.16;100.00
21869;BME280;11099;41.564;23.296;2022-08-21T02:50:27;96913.31;;;21.60;100.00
21869;BME280;11099;41.564;23.296;2022-08-21T02:52:53;96927.22;;;21.62;100.00
21869;BME280;11099;41.564;23.296;2022-08-21T02:55:21;96853.94;;;20.57;100.00
21869;BME280;11099;41.564;23.296;2022-08-21T02:57:48;96832.69;;;20.62;100.00
21869;BME280;11099;41.564;23.296;2022-08-21T03:00:14;96869.00;;;20.83;100.00
21869;BME280;11099;41.564;23.296;2022-08-21T03:02:40;96851.19;;;20.82;100.00
21869;BME280;11099;41.564;23.296;2022-08-21T03:05:07;96850.75;;;21.12;100.00
21869;BME280;11099;41.564;23.296;2022-08-21T03:07:34;96830.31;;;20.86;100.00
21869;BME280;11099;41.564;23.296;2022-08-21T03:10:00;96867.03;;;20.30;100.00
21869;BME280;11099;41.564;23.296;2022-08-21T03:12:25;96807.09;;;19.63;100.00
21869;BME280;11099;41.564;23.296;2022-08-21T03:14:51;96769.69;;;19.76;100.00
21869;BME280;11099;41.564;23.296;2022-08-21T03:17:16;96900.59;;;20.25;100.00
21869;BME280;11099;41.564;23.296;2022-08-21T03:19:42;96726.78;;;19.32;100.00
21869;BME280;11099;41.564;23.296;2022-08-21T03:22:08;96815.03;;;19.24;100.00
21869;BME280;11099;41.564;23.296;2022-08-21T03:24:33;96802.72;;;19.37;100.00
21869;BME280;11099;41.564;23.296;2022-08-21T03:26:59;96902.41;;;19.74;100.00
21869;BME280;11099;41.564;23.296;2022-08-21T03:29:25;96811.91;;;19.18;100.00
21869;BME280;11099;41.564;23.296;2022-08-21T03:31:50;96934.91;;;20.10;100.00
21869;BME280;11099;41.564;23.296;2022-08-21T03:34:18;96895.56;;;20.09;100.00
21869;BME280;11099;41.564;23.296;2022-08-21T03:36:44;96845.69;;;19.67;100.00
21869;BME280;11099;41.564;23.296;2022-08-21T03:39:09;96872.69;;;19.74;100.00
21869;BME280;11099;41.564;23.296;2022-08-21T03:41:35;96920.59;;;19.99;100.00
21869;BME280;11099;41.564;23.296;2022-08-21T03:44:01;96933.06;;;20.43;100.00
21869;BME280;11099;41.564;23.296;2022-08-21T03:46:26;96886.69;;;20.09;100.00
21869;BME280;11099;41.564;23.296;2022-08-21T03:48:52;96929.19;;;20.37;100.00
21869;BME280;11099;41.564;23.296;2022-08-21T03:51:18;96913.72;;;20.26;100.00
21869;BME280;11099;41.564;23.296;2022-08-21T03:53:44;96837.22;;;19.83;100.00
21869;BME280;11099;41.564;23.296;2022-08-21T03:56:10;96931.19;;;20.58;100.00
21869;BME280;11099;41.564;23.296;2022-08-21T03:58:36;96870.13;;;20.74;100.00
21869;BME280;11099;41.564;23.296;2022-08-21T04:01:04;96906.03;;;21.03;100.00
21869;BME280;11099;41.564;23.296;2022-08-21T04:03:32;96930.81;;;20.77;100.00
21869;BME280;11099;41.564;23.296;2022-08-21T04:05:59;96975.63;;;21.28;100.00
21869;BME280;11099;41.564;23.296;2022-08-21T04:08:24;96995.72;;;21.02;100.00
21869;BME280;11099;41.564;23.296;2022-08-21T04:10:53;96998.81;;;20.97;100.00
21869;BME280;11099;41.564;23.296;2022-08-21T04:13:20;96915.22;;;19.95;100.00
21869;BME280;11099;41.564;23.296;2022-08-21T04:15:46;96993.00;;;20.56;100.00
21869;BME280;11099;41.564;23.296;2022-08-21T04:18:11;96834.38;;;19.40;100.00
21869;BME280;11099;41.564;23.296;2022-08-21T04:20:37;96854.16;;;19.62;100.00
21869;BME280;11099;41.564;23.296;2022-08-21T04:23:03;96958.53;;;20.35;100.00
21869;BME280;11099;41.564;23.296;2022-08-21T04:25:29;96926.09;;;20.27;100.00
21869;BME280;11099;41.564;23.296;2022-08-21T04:27:55;96949.34;;;20.61;100.00
21869;BME280;11099;41.564;23.296;2022-08-21T04:30:21;96953.22;;;20.56;100.00
21869;BME280;11099;41.564;23.296;2022-08-21T04:32:48;96826.81;;;19.85;100.00
21869;BME280;11099;41.564;23.296;2022-08-21T04:35:20;96947.03;;;20.81;100.00
21869;BME280;11099;41.564;23.296;2022-08-21T04:37:46;96872.00;;;20.06;100.00
21869;BME280;11099;41.564;23.296;2022-08-21T04:40:14;96964.03;;;21.24;100.00
21869;BME280;11099;41.564;23.296;2022-08-21T04:42:57;96966.34;;;20.97;100.00
21869;BME280;11099;41.564;23.296;2022-08-21T04:45:31;96967.91;;;21.12;100.00
21869;BME280;11099;41.564;23.296;2022-08-21T04:47:58;96897.97;;;20.71;100.00
21869;BME280;11099;41.564;23.296;2022-08-21T04:50:30;96899.06;;;20.27;100.00
21869;BME280;11099;41.564;23.296;2022-08-21T04:52:57;96909.09;;;20.38;100.00
21869;BME280;11099;41.564;23.296;2022-08-21T04:55:23;96841.53;;;20.23;100.00
21869;BME280;11099;41.564;23.296;2022-08-21T04:57:50;96914.09;;;20.21;100.00
21869;BME280;11099;41.564;23.296;2022-08-21T05:00:17;96942.75;;;20.65;100.00
21869;BME280;11099;41.564;23.296;2022-08-21T05:02:44;96934.38;;;19.65;100.00
21869;BME280;11099;41.564;23.296;2022-08-21T05:05:13;96971.88;;;19.81;100.00
21869;BME280;11099;41.564;23.296;2022-08-21T05:07:39;96828.00;;;19.01;100.00
21869;BME280;11099;41.564;23.296;2022-08-21T05:10:05;96862.78;;;19.13;100.00
21869;BME280;11099;41.564;23.296;2022-08-21T05:12:33;96914.19;;;19.41;100.00
21869;BME280;11099;41.564;23.296;2022-08-21T05:14:59;96877.56;;;18.78;100.00
21869;BME280;11099;41.564;23.296;2022-08-21T05:17:25;96974.91;;;19.69;100.00
21869;BME280;11099;41.564;23.296;2022-08-21T05:19:51;96864.59;;;18.98;100.00
21869;BME280;11099;41.564;23.296;2022-08-21T05:22:23;96932.00;;;19.57;100.00
21869;BME280;11099;41.564;23.296;2022-08-21T05:24:49;96974.22;;;19.86;100.00
21869;BME280;11099;41.564;23.296;2022-08-21T05:27:15;96907.69;;;19.53;100.00
21869;BME280;11099;41.564;23.296;2022-08-21T05:29:40;96885.28;;;19.42;100.00
21869;BME280;11099;41.564;23.296;2022-08-21T05:32:10;96982.84;;;20.24;100.00
21869;BME280;11099;41.564;23.296;2022-08-21T05:34:36;96976.63;;;20.13;100.00
21869;BME280;11099;41.564;23.296;2022-08-21T05:37:02;96960.00;;;20.00;100.00
21869;BME280;11099;41.564;23.296;2022-08-21T05:39:28;96943.50;;;20.44;100.00
21869;BME280;11099;41.564;23.296;2022-08-21T05:41:53;96932.84;;;19.68;100.00
21869;BME280;11099;41.564;23.296;2022-08-21T05:44:19;96901.84;;;19.40;100.00
21869;BME280;11099;41.564;23.296;2022-08-21T05:46:44;96845.03;;;19.15;100.00
21869;BME280;11099;41.564;23.296;2022-08-21T05:49:11;96977.78;;;20.08;100.00
21869;BME280;11099;41.564;23.296;2022-08-21T05:51:38;96971.28;;;20.41;100.00
21869;BME280;11099;41.564;23.296;2022-08-21T05:54:04;96911.31;;;19.93;100.00
21869;BME280;11099;41.564;23.296;2022-08-21T05:56:29;96900.03;;;19.62;100.00
21869;BME280;11099;41.564;23.296;2022-08-21T05:58:55;96983.34;;;20.72;100.00
21869;BME280;11099;41.564;23.296;2022-08-21T06:01:21;96947.03;;;20.91;100.00
21869;BME280;11099;41.564;23.296;2022-08-21T06:03:47;96973.66;;;21.53;100.00
21869;BME280;11099;41.564;23.296;2022-08-21T06:06:12;96930.75;;;21.23;100.00
21869;BME280;11099;41.564;23.296;2022-08-21T06:08:38;96897.97;;;20.89;100.00
21869;BME280;11099;41.564;23.296;2022-08-21T06:11:05;96843.91;;;20.50;100.00
21869;BME280;11099;41.564;23.296;2022-08-21T06:13:31;96971.28;;;21.73;100.00
21869;BME280;11099;41.564;23.296;2022-08-21T06:18:31;96905.63;;;21.34;100.00
21869;BME280;11099;41.564;23.296;2022-08-21T06:20:57;96901.25;;;21.72;100.00
21869;BME280;11099;41.564;23.296;2022-08-21T06:23:22;96979.47;;;22.50;100.00
21869;BME280;11099;41.564;23.296;2022-08-21T06:25:48;96973.69;;;22.45;100.00
21869;BME280;11099;41.564;23.296;2022-08-21T06:28:13;96933.91;;;22.27;100.00
21869;BME280;11099;41.564;23.296;2022-08-21T06:30:39;96986.03;;;22.56;100.00
21869;BME280;11099;41.564;23.296;2022-08-21T06:33:05;96927.31;;;22.25;100.00
21869;BME280;11099;41.564;23.296;2022-08-21T06:35:32;96980.47;;;22.74;100.00
21869;BME280;11099;41.564;23.296;2022-08-21T06:38:00;96940.38;;;22.48;100.00
21869;BME280;11099;41.564;23.296;2022-08-21T06:40:27;96930.19;;;22.62;100.00
21869;BME280;11099;41.564;23.296;2022-08-21T06:42:53;96901.94;;;22.56;100.00
21869;BME280;11099;41.564;23.296;2022-08-21T06:45:18;96944.63;;;23.01;100.00
21869;BME280;11099;41.564;23.296;2022-08-21T06:47:44;96918.66;;;23.00;100.00
21869;BME280;11099;41.564;23.296;2022-08-21T06:50:10;96974.22;;;23.74;100.00
21869;BME280;11099;41.564;23.296;2022-08-21T06:52:36;96990.63;;;24.28;100.00
21869;BME280;11099;41.564;23.296;2022-08-21T06:55:04;96970.56;;;24.18;100.00
21869;BME280;11099;41.564;23.296;2022-08-21T06:57:30;96960.44;;;23.88;100.00
21869;BME280;11099;41.564;23.296;2022-08-21T06:59:55;96949.88;;;23.60;100.00
21869;BME280;11099;41.564;23.296;2022-08-21T07:02:21;96887.47;;;23.19;100.00
21869;BME280;11099;41.564;23.296;2022-08-21T07:04:46;96882.38;;;22.79;100.00
21869;BME280;11099;41.564;23.296;2022-08-21T07:07:12;96966.84;;;23.33;100.00
21869;BME280;11099;41.564;23.296;2022-08-21T07:09:38;96888.22;;;22.74;100.00
21869;BME280;11099;41.564;23.296;2022-08-21T07:12:04;96887.47;;;23.19;100.00
21869;BME280;11099;41.564;23.296;2022-08-21T07:14:30;96988.09;;;24.14;100.00
21869;BME280;11099;41.564;23.296;2022-08-21T07:16:56;96893.72;;;23.84;100.00
21869;BME280;11099;41.564;23.296;2022-08-21T07:19:21;96943.00;;;24.47;100.00
21869;BME280;11099;41.564;23.296;2022-08-21T07:21:47;96952.09;;;24.37;100.00
21869;BME280;11099;41.564;23.296;2022-08-21T07:24:12;96874.81;;;24.04;100.00
21869;BME280;11099;41.564;23.296;2022-08-21T07:26:38;96931.25;;;24.54;100.00
21869;BME280;11099;41.564;23.296;2022-08-21T07:29:04;96880.09;;;23.53;100.00
21869;BME280;11099;41.564;23.296;2022-08-21T07:31:30;96970.31;;;23.75;100.00
21869;BME280;11099;41.564;23.296;2022-08-21T07:33:56;96885.25;;;23.44;100.00
21869;BME280;11099;41.564;23.296;2022-08-21T07:36:22;96994.53;;;24.27;100.00
21869;BME280;11099;41.564;23.296;2022-08-21T07:38:47;96960.19;;;24.10;100.00
21869;BME280;11099;41.564;23.296;2022-08-21T07:41:25;96949.19;;;23.90;100.00
21869;BME280;11099;41.564;23.296;2022-08-21T07:43:51;96940.34;;;23.82;100.00
21869;BME280;11099;41.564;23.296;2022-08-21T07:46:16;96898.69;;;23.55;100.00
21869;BME280;11099;41.564;23.296;2022-08-21T07:48:42;96933.72;;;23.83;100.00
21869;BME280;11099;41.564;23.296;2022-08-21T07:51:11;96838.97;;;23.51;100.00
21869;BME280;11099;41.564;23.296;2022-08-21T07:53:37;96948.25;;;24.00;100.00
21869;BME280;11099;41.564;23.296;2022-08-21T07:56:04;96975.31;;;24.11;100.00
21869;BME280;11099;41.564;23.296;2022-08-21T07:58:30;96967.88;;;23.47;100.00
21869;BME280;11099;41.564;23.296;2022-08-21T08:00:56;96966.94;;;23.23;100.00
21869;BME280;11099;41.564;23.296;2022-08-21T08:03:21;96852.41;;;22.97;100.00
21869;BME280;11099;41.564;23.296;2022-08-21T08:05:47;96943.09;;;23.79;100.00
21869;BME280;11099;41.564;23.296;2022-08-21T08:08:12;96932.22;;;23.79;100.00
21869;BME280;11099;41.564;23.296;2022-08-21T08:10:38;96907.69;;;23.86;100.00
21869;BME280;11099;41.564;23.296;2022-08-21T08:13:04;96906.00;;;23.65;100.00
21869;BME280;11099;41.564;23.296;2022-08-21T08:15:31;96915.25;;;23.67;100.00
21869;BME280;11099;41.564;23.296;2022-08-21T08:17:57;96870.75;;;23.58;100.00
21869;BME280;11099;41.564;23.296;2022-08-21T08:20:24;96827.41;;;23.13;100.00
21869;BME280;11099;41.564;23.296;2022-08-21T08:22:52;96969.13;;;24.41;100.00
21869;BME280;11099;41.564;23.296;2022-08-21T08:25:19;96959.06;;;24.38;100.00
21869;BME280;11099;41.564;23.296;2022-08-21T08:27:45;96954.81;;;24.87;100.00
21869;BME280;11099;41.564;23.296;2022-08-21T08:30:13;96816.03;;;23.56;100.00
21869;BME280;11099;41.564;23.296;2022-08-21T08:32:39;96954.84;;;24.03;100.00
21869;BME280;11099;41.564;23.296;2022-08-21T08:35:05;96856.66;;;23.32;100.00
21869;BME280;11099;41.564;23.296;2022-08-21T08:37:32;96953.28;;;24.32;100.00
21869;BME280;11099;41.564;23.296;2022-08-21T08:39:58;96888.31;;;24.11;100.00
21869;BME280;11099;41.564;23.296;2022-08-21T08:42:31;96843.47;;;23.69;100.00
21869;BME280;11099;41.564;23.296;2022-08-21T08:45:19;96937.44;;;25.28;100.00
21869;BME280;11099;41.564;23.296;2022-08-21T08:47:49;96896.50;;;25.12;100.00
21869;BME280;11099;41.564;23.296;2022-08-21T08:50:20;96913.19;;;25.14;100.00
21869;BME280;11099;41.564;23.296;2022-08-21T08:53:07;96940.75;;;25.16;100.00
21869;BME280;11099;41.564;23.296;2022-08-21T08:55:39;96927.34;;;24.55;100.00
21869;BME280;11099;41.564;23.296;2022-08-21T08:58:06;96879.19;;;24.52;100.00
21869;BME280;11099;41.564;23.296;2022-08-21T09:00:33;96941.47;;;24.96;100.00
21869;BME280;11099;41.564;23.296;2022-08-21T09:03:02;96937.81;;;24.56;100.00
21869;BME280;11099;41.564;23.296;2022-08-21T09:05:56;96862.41;;;24.30;100.00
21869;BME280;11099;41.564;23.296;2022-08-21T09:08:40;96890.47;;;24.50;100.00
21869;BME280;11099;41.564;23.296;2022-08-21T09:11:56;96936.94;;;24.86;100.00
21869;BME280;11099;41.564;23.296;2022-08-21T09:17:23;96936.59;;;24.84;100.00
21869;BME280;11099;41.564;23.296;2022-08-21T09:28:00;96924.06;;;25.14;100.00
21869;BME280;11099;41.564;23.296;2022-08-21T09:30:30;96862.41;;;24.80;100.00
21869;BME280;11099;41.564;23.296;2022-08-21T09:32:56;96858.84;;;24.60;100.00
21869;BME280;11099;41.564;23.296;2022-08-21T09:35:23;96869.50;;;24.74;100.00
21869;BME280;11099;41.564;23.296;2022-08-21T09:38:04;96878.41;;;25.41;100.00
21869;BME280;11099;41.564;23.296;2022-08-21T09:45:43;96849.75;;;25.73;100.00
21869;BME280;11099;41.564;23.296;2022-08-21T09:48:24;96894.56;;;25.72;100.00
21869;BME280;11099;41.564;23.296;2022-08-21T09:50:52;96907.66;;;25.61;100.00
21869;BME280;11099;41.564;23.296;2022-08-21T09:53:22;96911.78;;;25.89;100.00
21869;BME280;11099;41.564;23.296;2022-08-21T09:55:52;96909.31;;;25.74;100.00
21869;BME280;11099;41.564;23.296;2022-08-21T09:58:38;96872.53;;;25.43;100.00
21869;BME280;11099;41.564;23.296;2022-08-21T10:01:05;96917.09;;;25.33;100.00
21869;BME280;11099;41.564;23.296;2022-08-21T10:03:31;96919.13;;;25.05;100.00
21869;BME280;11099;41.564;23.296;2022-08-21T10:06:06;96863.31;;;24.93;100.00
21869;BME280;11099;41.564;23.296;2022-08-21T10:08:36;96904.50;;;24.72;100.00
21869;BME280;11099;41.564;23.296;2022-08-21T10:11:05;96880.13;;;24.41;100.00
21869;BME280;11099;41.564;23.296;2022-08-21T10:17:13;96925.06;;;24.50;100.00
21869;BME280;11099;41.564;23.296;2022-08-21T10:19:16;96916.94;;;24.19;100.00
21869;BME280;11099;41.564;23.296;2022-08-21T10:24:33;96908.97;;;24.35;100.00
21869;BME280;11099;41.564;23.296;2022-08-21T10:27:46;96910.81;;;24.11;100.00
21869;BME280;11099;41.564;23.296;2022-08-21T10:30:14;96913.78;;;23.93;100.00
21869;BME280;11099;41.564;23.296;2022-08-21T10:35:18;96847.13;;;23.51;100.00
21869;BME280;11099;41.564;23.296;2022-08-21T10:43:49;96886.94;;;23.31;100.00
21869;BME280;11099;41.564;23.296;2022-08-21T10:55:30;96898.38;;;23.83;100.00
21869;BME280;11099;41.564;23.296;2022-08-21T10:58:04;96900.25;;;23.90;100.00
21869;BME280;11099;41.564;23.296;2022-08-21T11:00:38;96907.16;;;23.95;100.00
21869;BME280;11099;41.564;23.296;2022-08-21T11:03:27;96870.25;;;23.66;100.00
21869;BME280;11099;41.564;23.296;2022-08-21T11:06:11;96880.31;;;23.70;100.00
21869;BME280;11099;41.564;23.296;2022-08-21T11:08:46;96739.72;;;22.82;100.00
21869;BME280;11099;41.564;23.296;2022-08-21T11:11:36;96829.34;;;23.47;100.00
21869;BME280;11099;41.564;23.296;2022-08-21T11:14:24;96860.91;;;23.67;100.00
21869;BME280;11099;41.564;23.296;2022-08-21T11:17:02;96854.03;;;23.59;100.00
21869;BME280;11099;41.564;23.296;2022-08-21T11:19:40;96809.06;;;23.55;100.00
21869;BME280;11099;41.564;23.296;2022-08-21T11:22:26;96852.66;;;24.05;100.00
21869;BME280;11099;41.564;23.296;2022-08-21T11:25:02;96838.44;;;24.21;100.00
21869;BME280;11099;41.564;23.296;2022-08-21T11:30:13;96794.75;;;24.32;100.00
21869;BME280;11099;41.564;23.296;2022-08-21T11:35:36;96820.94;;;24.49;100.00
21869;BME280;11099;41.564;23.296;2022-08-21T11:38:36;96863.78;;;24.88;100.00
21869;BME280;11099;41.564;23.296;2022-08-21T11:41:20;96857.09;;;24.93;100.00
21869;BME280;11099;41.564;23.296;2022-08-21T11:43:51;96856.75;;;24.91;100.00
21869;BME280;11099;41.564;23.296;2022-08-21T11:46:29;96862.06;;;24.78;100.00
21869;BME280;11099;41.564;23.296;2022-08-21T11:51:51;96854.63;;;24.28;100.00
21869;BME280;11099;41.564;23.296;2022-08-21T11:54:36;96826.19;;;23.52;100.00
21869;BME280;11099;41.564;23.296;2022-08-21T11:59:42;96805.06;;;23.32;100.00
21869;BME280;11099;41.564;23.296;2022-08-21T12:02:14;96858.75;;;23.86;100.00
21869;BME280;11099;41.564;23.296;2022-08-21T12:04:53;96860.78;;;24.09;100.00
21869;BME280;11099;41.564;23.296;2022-08-21T12:07:32;96867.09;;;23.72;100.00
21869;BME280;11099;41.564;23.296;2022-08-21T12:10:03;96768.34;;;23.24;100.00
21869;BME280;11099;41.564;23.296;2022-08-21T12:12:33;96836.31;;;23.78;100.00
21869;BME280;11099;41.564;23.296;2022-08-21T12:17:38;96844.28;;;23.62;100.00
21869;BME280;11099;41.564;23.296;2022-08-21T12:20:32;96845.41;;;23.68;100.00
21869;BME280;11099;41.564;23.296;2022-08-21T12:26:03;96846.63;;;23.63;100.00
21869;BME280;11099;41.564;23.296;2022-08-21T12:28:34;96764.00;;;23.30;100.00
21869;BME280;11099;41.564;23.296;2022-08-21T12:31:00;96844.84;;;23.80;100.00
21869;BME280;11099;41.564;23.296;2022-08-21T12:33:30;96826.56;;;23.50;100.00
21869;BME280;11099;41.564;23.296;2022-08-21T12:36:10;96833.13;;;23.22;100.00
21869;BME280;11099;41.564;23.296;2022-08-21T12:38:50;96743.75;;;22.67;100.00
21869;BME280;11099;41.564;23.296;2022-08-21T12:41:42;96832.25;;;23.29;100.00
21869;BME280;11099;41.564;23.296;2022-08-21T12:44:16;96862.78;;;23.40;100.00
21869;BME280;11099;41.564;23.296;2022-08-21T12:46:58;96836.22;;;23.24;100.00
21869;BME280;11099;41.564;23.296;2022-08-21T12:49:36;96864.88;;;22.84;100.00
21869;BME280;11099;41.564;23.296;2022-08-21T12:55:12;96874.81;;;22.56;100.00
21869;BME280;11099;41.564;23.296;2022-08-21T12:57:40;96847.50;;;22.33;100.00
21869;BME280;11099;41.564;23.296;2022-08-21T13:00:08;96834.03;;;21.49;100.00
21869;BME280;11099;41.564;23.296;2022-08-21T13:02:42;96801.28;;;21.08;100.00
21869;BME280;11099;41.564;23.296;2022-08-21T13:05:14;96875.66;;;21.80;100.00
21869;BME280;11099;41.564;23.296;2022-08-21T13:07:45;96879.72;;;21.36;100.00
21869;BME280;11099;41.564;23.296;2022-08-21T13:10:19;96800.84;;;21.20;100.00
21869;BME280;11099;41.564;23.296;2022-08-21T13:12:46;96866.13;;;21.47;100.00
21869;BME280;11099;41.564;23.296;2022-08-21T13:15:12;96865.91;;;20.88;100.00
21869;BME280;11099;41.564;23.296;2022-08-21T13:17:47;96801.03;;;20.56;100.00
21869;BME280;11099;41.564;23.296;2022-08-21T13:20:25;96845.03;;;20.85;100.00
21869;BME280;11099;41.564;23.296;2022-08-21T13:22:52;96856.50;;;21.24;100.00
21869;BME280;11099;41.564;23.296;2022-08-21T13:25:20;96851.91;;;21.21;100.00
21869;BME280;11099;41.564;23.296;2022-08-21T13:27:59;96769.66;;;20.90;100.00
21869;BME280;11099;41.564;23.296;2022-08-21T13:30:25;96772.69;;;21.07;100.00
21869;BME280;11099;41.564;23.296;2022-08-21T13:32:55;96838.25;;;21.57;100.00
21869;BME280;11099;41.564;23.296;2022-08-21T13:35:25;96754.47;;;21.21;100.00
21869;BME280;11099;41.564;23.296;2022-08-21T13:37:53;96753.22;;;21.44;100.00
21869;BME280;11099;41.564;23.296;2022-08-21T13:40:32;96843.13;;;21.87;100.00
21869;BME280;11099;41.564;23.296;2022-08-21T13:43:03;96869.09;;;21.77;100.00
21869;BME280;11099;41.564;23.296;2022-08-21T13:45:32;96856.75;;;21.69;100.00
21869;BME280;11099;41.564;23.296;2022-08-21T13:48:00;96849.34;;;21.80;100.00
21869;BME280;11099;41.564;23.296;2022-08-21T13:50:26;96796.59;;;21.33;100.00
21869;BME280;11099;41.564;23.296;2022-08-21T13:53:01;96764.16;;;21.08;100.00